createdAt,value
2018-09-21T00:00:09.651Z,9.60
2018-09-21T00:05:04.627Z,6.93
2018-09-21T00:10:02.955Z,7.43
2018-09-21T00:14:59.659Z,6.23
2018-09-21T00:19:55.005Z,8.47
2018-09-21T00:24:49.960Z,8.93
2018-09-21T00:29:46.506Z,9.27
2018-09-21T00:34:41.364Z,8.83
2018-09-21T00:39:36.291Z,11.07
2018-09-21T00:44:31.257Z,9.80
2018-09-21T00:49:27.294Z,10.23
2018-09-21T00:54:22.212Z,10.00
2018-09-21T00:59:17.223Z,12.97
2018-09-21T01:04:14.163Z,8.73
2018-09-21T01:09:11.311Z,9.53
2018-09-21T01:14:06.254Z,10.00
2018-09-21T01:19:01.203Z,9.70
2018-09-21T01:23:56.140Z,8.67
2018-09-21T01:28:51.140Z,10.17
2018-09-21T01:33:46.026Z,9.30
2018-09-21T01:38:40.903Z,10.63
2018-09-21T01:43:35.821Z,9.73
2018-09-21T01:48:30.686Z,9.17
2018-09-21T01:53:25.563Z,10.93
2018-09-21T01:58:20.407Z,8.60
2018-09-21T02:03:15.270Z,9.73
2018-09-21T02:08:10.401Z,8.73
2018-09-21T02:13:05.348Z,9.27
2018-09-21T02:18:00.260Z,9.97
2018-09-21T02:22:55.161Z,11.60
2018-09-21T02:27:50.117Z,9.23
2018-09-21T02:32:45.005Z,8.33
2018-09-21T02:37:39.924Z,9.70
2018-09-21T02:42:34.838Z,8.90
2018-09-21T02:47:29.714Z,7.77
2018-09-21T02:52:24.582Z,9.43
2018-09-21T02:57:19.450Z,9.47
2018-09-21T03:02:14.359Z,10.03
2018-09-21T03:07:09.259Z,11.63
2018-09-21T03:12:04.141Z,11.17
2018-09-21T03:16:59.037Z,7.70
2018-09-21T03:21:53.943Z,10.07
2018-09-21T03:26:48.817Z,10.30
2018-09-21T03:31:43.685Z,11.10
2018-09-21T03:36:38.599Z,11.17
2018-09-21T03:41:33.487Z,13.17
2018-09-21T03:46:28.347Z,11.23
2018-09-21T03:51:23.241Z,11.23
2018-09-21T03:56:18.133Z,10.73
2018-09-21T04:01:13.100Z,12.30
2018-09-21T04:06:07.613Z,10.70
2018-09-21T04:11:02.504Z,11.57
2018-09-21T04:15:57.405Z,13.00
2018-09-21T04:20:52.243Z,10.20
2018-09-21T04:25:47.091Z,10.90
2018-09-21T04:30:41.990Z,14.50
2018-09-21T04:35:36.823Z,16.10
2018-09-21T04:40:31.747Z,9.23
2018-09-21T04:45:26.646Z,10.77
2018-09-21T04:50:21.570Z,11.07
2018-09-21T04:55:16.458Z,16.00
2018-09-21T05:00:11.428Z,14.27
2018-09-21T05:05:06.487Z,10.47
2018-09-21T05:10:01.354Z,12.67
2018-09-21T05:14:56.290Z,11.30
2018-09-21T05:19:51.337Z,12.40
2018-09-21T05:24:46.255Z,13.23
2018-09-21T05:29:41.689Z,11.93
2018-09-21T05:34:36.625Z,11.40
2018-09-21T05:39:31.500Z,10.27
2018-09-21T05:44:26.403Z,11.23
2018-09-21T05:49:21.300Z,13.53
2018-09-21T05:54:16.221Z,10.57
2018-09-21T05:59:11.149Z,10.90
2018-09-21T06:04:06.050Z,12.20
2018-09-21T06:09:00.981Z,13.63
2018-09-21T06:13:55.972Z,18.63
2018-09-21T06:18:50.852Z,13.57
2018-09-21T06:23:45.722Z,13.00
2018-09-21T06:28:40.627Z,12.30
2018-09-21T06:33:35.554Z,14.50
2018-09-21T06:38:30.421Z,15.10
2018-09-21T06:43:25.314Z,14.70
2018-09-21T06:48:20.196Z,14.37
2018-09-21T06:53:15.140Z,15.97
2018-09-21T06:58:10.049Z,14.93
2018-09-21T07:03:05.059Z,13.83
2018-09-21T07:07:59.990Z,20.33
2018-09-21T07:12:55.014Z,16.03
2018-09-21T07:17:49.898Z,19.13
2018-09-21T07:22:44.873Z,21.77
2018-09-21T07:27:39.760Z,18.53
2018-09-21T07:32:34.726Z,17.63
2018-09-21T07:37:29.702Z,19.33
2018-09-21T07:42:24.614Z,20.17
2018-09-21T07:47:19.546Z,17.60
2018-09-21T07:52:14.543Z,19.83
2018-09-21T07:57:09.489Z,16.97
2018-09-21T08:02:04.669Z,19.97
2018-09-21T08:06:59.665Z,19.53
2018-09-21T08:11:54.636Z,18.17
2018-09-21T08:16:49.606Z,15.77
2018-09-21T08:21:45.055Z,18.00
2018-09-21T08:26:40.139Z,19.57
2018-09-21T08:31:42.957Z,14.90
2018-09-21T08:36:37.953Z,12.57
2018-09-21T08:41:32.963Z,15.90
2018-09-21T08:46:27.929Z,12.93
2018-09-21T08:51:22.898Z,15.27
2018-09-21T08:56:17.941Z,14.23
2018-09-21T09:01:12.867Z,14.30
2018-09-21T09:06:08.133Z,14.93
2018-09-21T09:11:03.070Z,15.00
2018-09-21T09:15:58.034Z,13.80
2018-09-21T09:20:54.825Z,14.70
2018-09-21T09:25:49.771Z,12.93
2018-09-21T09:30:44.668Z,14.60
2018-09-21T09:35:39.740Z,15.23
2018-09-21T09:40:34.694Z,11.30
2018-09-21T09:45:29.655Z,11.83
2018-09-21T09:50:24.718Z,9.10
2018-09-21T09:55:19.999Z,7.90
2018-09-21T10:00:15.010Z,6.60
2018-09-21T10:05:09.966Z,7.62
2018-09-21T10:10:05.119Z,6.05
2018-09-21T10:15:00.090Z,6.87
2018-09-21T10:19:55.077Z,5.93
2018-09-21T10:24:49.997Z,5.62
2018-09-21T10:29:44.905Z,6.30
2018-09-21T10:34:39.971Z,5.65
2018-09-21T10:39:34.993Z,7.35
2018-09-21T10:44:30.009Z,7.17
2018-09-21T10:49:24.905Z,6.00
2018-09-21T10:54:19.973Z,5.60
2018-09-21T10:59:14.898Z,5.12
2018-09-21T11:04:09.917Z,6.72
2018-09-21T11:09:07.619Z,6.97
2018-09-21T11:14:02.475Z,6.78
2018-09-21T11:18:57.412Z,4.80
2018-09-21T11:23:52.307Z,6.45
2018-09-21T11:28:47.331Z,6.45
2018-09-21T11:33:42.280Z,5.83
2018-09-21T11:38:37.266Z,5.17
2018-09-21T11:43:32.234Z,5.22
2018-09-21T11:48:27.152Z,9.13
2018-09-21T11:53:22.035Z,8.55
2018-09-21T11:58:16.968Z,5.97
2018-09-21T12:03:11.892Z,5.37
2018-09-21T12:08:06.882Z,7.20
2018-09-21T12:13:01.835Z,6.53
2018-09-21T12:17:56.823Z,5.70
2018-09-21T12:22:51.839Z,4.83
2018-09-21T12:27:46.692Z,7.17
2018-09-21T12:32:41.582Z,5.22
2018-09-21T12:37:36.547Z,7.72
2018-09-21T12:42:31.453Z,5.25
2018-09-21T12:47:26.386Z,7.55
2018-09-21T12:52:21.437Z,6.08
2018-09-21T12:57:16.344Z,8.00
2018-09-21T13:02:11.292Z,6.92
2018-09-21T13:07:06.378Z,4.62
2018-09-21T13:12:01.279Z,4.33
2018-09-21T13:16:56.251Z,3.60
2018-09-21T13:21:51.235Z,4.92
2018-09-21T13:26:46.704Z,4.05
2018-09-21T13:31:41.587Z,5.90
2018-09-21T13:36:36.585Z,5.35
2018-09-21T13:41:31.508Z,4.95
2018-09-21T13:46:26.473Z,5.83
2018-09-21T13:51:21.424Z,6.28
2018-09-21T13:56:16.306Z,5.05
2018-09-21T14:01:11.214Z,5.00
2018-09-21T14:06:06.801Z,4.42
2018-09-21T14:11:01.898Z,5.30
2018-09-21T14:15:56.820Z,8.63
2018-09-21T14:20:51.859Z,9.13
2018-09-21T14:25:46.819Z,7.28
2018-09-21T14:30:41.838Z,7.28
2018-09-21T14:35:36.784Z,7.33
2018-09-21T14:40:31.669Z,4.97
2018-09-21T14:45:26.525Z,4.40
2018-09-21T14:50:21.457Z,5.05
2018-09-21T14:55:16.386Z,4.42
2018-09-21T15:00:11.327Z,6.63
2018-09-21T15:05:06.399Z,5.40
2018-09-21T15:10:01.313Z,5.53
2018-09-21T15:14:56.343Z,6.67
2018-09-21T15:19:51.244Z,5.93
2018-09-21T15:24:46.170Z,4.73
2018-09-21T15:29:41.042Z,5.57
2018-09-21T15:34:35.946Z,5.40
2018-09-21T15:39:30.843Z,4.67
2018-09-21T15:44:25.818Z,7.37
2018-09-21T15:49:20.754Z,5.40
2018-09-21T15:54:15.672Z,5.43
2018-09-21T15:59:10.550Z,6.07
2018-09-21T16:04:05.534Z,5.00
2018-09-21T16:09:00.857Z,5.33
2018-09-21T16:13:55.804Z,10.70
2018-09-21T16:18:50.737Z,7.93
2018-09-21T16:23:45.645Z,6.70
2018-09-21T16:28:40.553Z,5.00
2018-09-21T16:33:35.508Z,5.83
2018-09-21T16:38:31.353Z,4.87
2018-09-21T16:43:26.332Z,12.63
2018-09-21T16:48:21.345Z,5.57
2018-09-21T16:53:16.277Z,7.40
2018-09-21T16:58:11.253Z,7.57
2018-09-21T17:03:06.254Z,5.40
2018-09-21T17:08:01.210Z,7.03
2018-09-21T17:12:56.215Z,6.70
2018-09-21T17:17:51.106Z,7.00
2018-09-21T17:22:46.083Z,4.97
2018-09-21T17:27:41.082Z,6.13
2018-09-21T17:32:36.379Z,4.37
2018-09-21T17:37:31.711Z,5.67
2018-09-21T17:42:26.981Z,6.43
2018-09-21T17:47:22.252Z,5.77
2018-09-21T17:52:17.416Z,4.00
2018-09-21T17:57:12.306Z,6.93
2018-09-21T18:02:07.363Z,4.67
2018-09-21T18:07:02.382Z,5.07
2018-09-21T18:11:57.486Z,5.03
2018-09-21T18:16:52.630Z,3.90
2018-09-21T18:21:47.856Z,4.73
2018-09-21T18:26:42.820Z,7.30
2018-09-21T18:31:37.951Z,1.87
2018-09-21T18:36:33.033Z,1.37
2018-09-21T18:41:28.244Z,1.13
2018-09-21T18:46:23.475Z,1.37
2018-09-21T18:51:18.433Z,0.53
2018-09-21T18:56:13.512Z,0.50
2018-09-21T19:01:08.680Z,0.17
2018-09-21T19:06:03.678Z,1.00
2018-09-21T19:10:58.616Z,1.80
2018-09-21T19:15:53.669Z,0.47
2018-09-21T19:20:48.858Z,0.57
2018-09-21T19:25:44.118Z,0.30
2018-09-21T19:30:39.370Z,0.30
2018-09-21T19:35:34.332Z,0.63
2018-09-21T19:40:29.254Z,0.10
2018-09-21T19:45:24.366Z,2.37
2018-09-21T19:50:19.179Z,0.20
2018-09-21T19:55:14.093Z,0.50
2018-09-21T20:00:09.114Z,0.30
2018-09-21T20:05:04.097Z,0.77
2018-09-21T20:09:59.027Z,0.40
2018-09-21T20:14:53.952Z,1.13
2018-09-21T20:19:48.854Z,0.53
2018-09-21T20:24:43.775Z,0.70
2018-09-21T20:29:38.718Z,1.27
2018-09-21T20:34:33.763Z,1.57
2018-09-21T20:39:28.783Z,1.63
2018-09-21T20:44:23.883Z,1.27
2018-09-21T20:49:18.905Z,1.50
2018-09-21T20:54:13.759Z,4.93
2018-09-21T20:59:08.701Z,2.07
2018-09-21T21:04:03.654Z,1.03
2018-09-21T21:08:58.566Z,1.93
2018-09-21T21:13:53.585Z,1.30
2018-09-21T21:18:48.640Z,1.03
2018-09-21T21:23:46.586Z,2.47
2018-09-21T21:28:42.623Z,0.80
2018-09-21T21:33:37.582Z,1.33
2018-09-21T21:38:32.586Z,1.43
2018-09-21T21:43:27.639Z,1.07
2018-09-21T21:48:22.608Z,5.20
2018-09-21T21:53:17.515Z,4.30
2018-09-21T21:58:12.585Z,1.60
2018-09-21T22:03:07.713Z,1.77
2018-09-21T22:08:02.809Z,1.80
2018-09-21T22:13:02.783Z,2.53
2018-09-21T22:17:57.970Z,1.57
2018-09-21T22:22:53.197Z,2.37
2018-09-21T22:27:48.316Z,6.33
2018-09-21T22:32:43.296Z,3.93
2018-09-21T22:37:38.368Z,3.10
2018-09-21T22:42:33.498Z,2.40
2018-09-21T22:47:28.693Z,2.33
2018-09-21T22:52:23.785Z,2.73
2018-09-21T22:57:18.903Z,4.40
2018-09-21T23:02:14.084Z,6.20
2018-09-21T23:07:09.338Z,4.63
2018-09-21T23:12:04.490Z,2.43
2018-09-21T23:16:59.712Z,4.43
2018-09-21T23:21:54.754Z,2.03
2018-09-21T23:26:49.874Z,3.47
2018-09-21T23:31:44.977Z,2.63
2018-09-21T23:36:41.805Z,3.37
2018-09-21T23:41:38.288Z,1.23
2018-09-21T23:46:33.422Z,5.07
2018-09-21T23:51:30.712Z,2.03
2018-09-21T23:56:28.471Z,5.03
